Time;durP1;ratioP1;P1;durP2;ratioP2;P2;SDS_P1;SDS_P2;PMS_P1;PMS_P2;Temp;Humidity;BMP_temperature;BMP_pressure;BME280_temperature;BME280_humidity;BME280_pressure;Samples;Min_cycle;Max_cycle;Signal;HPM_P1;HPM_P2
2022/06/04 00:00:02;;;;;;;5.80;2.20;;;;;;;15.98;56.33;101632.41;6499345;23;20426;-84
2022/06/04 00:02:38;;;;;;;7.85;2.30;;;;;;;15.90;56.53;101634.31;6499526;23;20004;-79
2022/06/04 00:05:12;;;;;;;5.07;2.10;;;;;;;15.80;56.44;101632.81;6498804;23;20084;-83
2022/06/04 00:07:45;;;;;;;6.65;2.75;;;;;;;15.84;56.19;101630.09;6500031;23;20027;-80
2022/06/04 00:16:05;;;;;;;4.07;2.08;;;;;;;15.83;56.27;101622.22;6499249;23;20008;-79
2022/06/04 00:18:38;;;;;;;3.80;2.30;;;;;;;15.98;56.88;101629.75;6499344;23;20007;-82
2022/06/04 00:21:11;;;;;;;5.28;2.58;;;;;;;15.91;56.89;101619.44;6499733;23;20324;-79
2022/06/04 00:23:43;;;;;;;6.38;2.22;;;;;;;15.74;56.60;101623.25;6499984;23;20004;-83
2022/06/04 00:26:15;;;;;;;4.47;1.90;;;;;;;15.58;56.89;101622.69;6499369;23;20014;-77
2022/06/04 00:28:48;;;;;;;6.28;3.47;;;;;;;15.68;56.71;101626.00;6500553;23;20055;-83
2022/06/04 00:31:19;;;;;;;4.35;2.10;;;;;;;15.90;57.31;101633.47;6501119;23;20702;-82
2022/06/04 00:33:50;;;;;;;9.30;2.60;;;;;;;15.76;56.50;101633.72;6499647;23;20012;-79
2022/06/04 00:36:22;;;;;;;9.23;2.47;;;;;;;15.64;55.84;101635.72;6498886;23;20055;-83
2022/06/04 00:38:53;;;;;;;4.93;2.43;;;;;;;15.69;56.79;101640.88;6499571;23;20105;-82
2022/06/04 00:41:39;;;;;;;3.57;2.07;;;;;;;15.58;56.20;101634.97;6498614;23;20445;-80
2022/06/04 00:44:10;;;;;;;7.07;2.67;;;;;;;15.56;56.54;101619.22;6499003;23;20000;-81
2022/06/04 00:46:41;;;;;;;4.03;2.33;;;;;;;15.49;56.55;101613.25;6498116;23;20008;-79
2022/06/04 00:49:20;;;;;;;3.77;2.03;;;;;;;15.39;56.09;101618.69;6498525;23;20012;-81
2022/06/04 00:51:53;;;;;;;5.88;2.20;;;;;;;15.30;55.62;101625.88;6498809;23;20111;-82
2022/06/04 00:54:24;;;;;;;3.95;2.10;;;;;;;15.31;55.95;101638.13;6499378;23;20019;-85
2022/06/04 00:57:10;;;;;;;3.43;2.10;;;;;;;15.41;57.23;101645.81;6499197;23;20004;-82
2022/06/04 01:00:10;;;;;;;4.03;2.42;;;;;;;15.41;55.64;101656.34;6498696;23;20425;-83
2022/06/04 01:02:52;;;;;;;4.00;1.80;;;;;;;15.42;55.79;101658.03;6498091;23;20092;-75
2022/06/04 01:05:49;;;;;;;6.35;2.30;;;;;;;15.40;55.63;101651.97;6498410;23;20610;-83
2022/06/04 01:08:45;;;;;;;3.67;1.95;;;;;;;15.32;55.76;101675.75;6497895;23;20027;-81
2022/06/04 01:14:54;;;;;;;5.53;2.72;;;;;;;15.36;55.72;101672.19;6369987;23;20018;-81
2022/06/04 01:17:41;;;;;;;5.55;2.22;;;;;;;15.14;56.13;101674.31;6371258;23;20014;-81
2022/06/04 01:20:33;;;;;;;5.32;2.05;;;;;;;15.18;56.16;101668.09;6371037;23;20025;-82
2022/06/04 01:23:13;;;;;;;6.70;2.70;;;;;;;15.13;56.23;101673.47;6371470;23;20014;-77
2022/06/04 01:25:57;;;;;;;4.15;1.92;;;;;;;15.12;56.09;101669.09;6347712;23;20678;-82
2022/06/04 01:28:31;;;;;;;4.35;2.15;;;;;;;14.97;56.11;101673.75;6371149;23;20041;-83
2022/06/04 01:31:06;;;;;;;4.85;2.10;;;;;;;15.04;56.31;101678.88;6372675;23;20344;-81
2022/06/04 01:33:50;;;;;;;4.40;2.20;;;;;;;14.86;56.21;101681.78;6372608;23;20006;-81
2022/06/04 01:36:39;;;;;;;3.60;2.20;;;;;;;14.90;56.40;101673.84;6371868;23;20009;-80
2022/06/04 01:39:18;;;;;;;4.57;2.08;;;;;;;15.02;56.52;101682.41;6373834;23;20014;-82
2022/06/04 01:41:57;;;;;;;3.20;1.98;;;;;;;14.89;56.61;101676.47;6370994;23;20010;-83
2022/06/04 01:44:34;;;;;;;3.90;2.22;;;;;;;14.78;56.51;101679.31;6372401;23;20057;-84
2022/06/04 01:47:06;;;;;;;3.33;2.17;;;;;;;14.67;56.78;101695.22;6371652;23;20077;-84
2022/06/04 01:49:40;;;;;;;6.97;2.70;;;;;;;14.64;56.79;101694.41;6371173;23;20017;-80
2022/06/04 01:52:20;;;;;;;4.28;2.00;;;;;;;14.60;56.95;101704.06;6482135;23;20026;-80
2022/06/04 01:55:04;;;;;;;4.80;2.25;;;;;;;14.65;57.07;101707.50;6498245;23;20008;-80
2022/06/04 01:57:41;;;;;;;4.45;2.30;;;;;;;14.63;57.65;101714.50;6498272;23;20004;-80
2022/06/04 02:00:19;;;;;;;4.70;2.75;;;;;;;14.50;57.50;101716.41;6498187;23;20439;-81
2022/06/04 02:02:55;;;;;;;2.83;2.20;;;;;;;14.46;58.15;101713.84;6497728;23;20008;-82
2022/06/04 02:05:40;;;;;;;8.13;2.70;;;;;;;14.60;57.93;101706.66;6497720;23;20012;-82
2022/06/04 02:08:14;;;;;;;6.68;2.33;;;;;;;14.56;58.46;101710.22;6498605;23;20012;-78
2022/06/04 02:10:59;;;;;;;4.65;2.38;;;;;;;14.35;58.26;101706.16;6498237;23;20022;-83
2022/06/04 02:13:31;;;;;;;4.45;2.20;;;;;;;14.40;58.60;101712.19;6496686;23;20015;-79
2022/06/04 02:16:21;;;;;;;2.50;2.03;;;;;;;14.49;58.27;101725.19;6498398;23;20389;-82
2022/06/04 02:18:56;;;;;;;3.72;2.50;;;;;;;14.43;58.76;101719.16;6498363;23;20016;-78
2022/06/04 02:21:28;;;;;;;4.07;2.33;;;;;;;14.26;58.63;101716.75;6498104;23;20004;-83
2022/06/04 02:24:00;;;;;;;4.25;2.65;;;;;;;14.18;59.21;101715.13;6498076;23;20515;-82
2022/06/04 02:26:32;;;;;;;7.20;2.67;;;;;;;14.20;59.06;101713.31;6498075;23;20022;-83
2022/06/04 02:29:05;;;;;;;;;;;;;;;14.32;58.15;101707.03;6497785;23;20008;-77
2022/06/04 02:31:47;;;;;;;4.47;2.50;;;;;;;14.23;59.76;101712.41;6497114;23;19912;-81
2022/06/04 02:34:25;;;;;;;4.22;2.17;;;;;;;14.18;59.98;101709.88;6498326;23;20007;-78
2022/06/04 02:37:05;;;;;;;9.57;3.20;;;;;;;14.07;59.82;101703.00;6497786;23;20011;-84
2022/06/04 02:40:03;;;;;;;7.45;2.70;;;;;;;13.99;60.05;101697.84;6498022;23;20008;-80
2022/06/04 02:42:43;;;;;;;7.68;3.00;;;;;;;13.97;60.07;101694.38;6497582;23;20008;-84
2022/06/04 02:45:27;;;;;;;5.47;2.65;;;;;;;14.15;60.02;101686.31;6497656;23;20410;-80
2022/06/04 02:48:17;;;;;;;3.55;2.58;;;;;;;14.13;60.03;101680.19;6497389;23;20032;-83
2022/06/04 02:50:56;;;;;;;3.90;2.60;;;;;;;14.01;60.27;101662.03;6497147;23;20083;-83
2022/06/04 02:53:31;;;;;;;5.47;3.00;;;;;;;14.06;60.18;101652.34;6497403;23;20016;-81
2022/06/04 02:56:10;;;;;;;4.57;2.85;;;;;;;13.99;61.04;101648.03;6497949;23;20004;-82
2022/06/04 02:58:44;;;;;;;9.82;3.40;;;;;;;13.86;61.00;101647.34;6497630;23;20004;-84
2022/06/04 03:01:17;;;;;;;8.27;2.97;;;;;;;13.85;61.29;101643.84;6496909;23;20453;-76
2022/06/04 03:03:48;;;;;;;7.45;3.03;;;;;;;13.81;61.26;101639.56;6497676;23;20011;-84
2022/06/04 03:06:25;;;;;;;6.33;2.57;;;;;;;13.81;61.34;101647.41;6497998;23;20004;-77
2022/06/04 03:08:58;;;;;;;5.97;2.88;;;;;;;13.74;61.84;101639.66;6497916;23;20675;-83
2022/06/04 03:11:29;;;;;;;12.50;3.65;;;;;;;13.75;62.05;101647.50;6497771;23;20134;-78
2022/06/04 03:14:01;;;;;;;6.90;2.97;;;;;;;13.79;62.73;101646.56;6497830;23;20042;-79
2022/06/04 03:16:36;;;;;;;6.07;2.93;;;;;;;13.70;62.37;101632.69;6497212;23;20008;-82
2022/06/04 03:19:09;;;;;;;5.88;3.33;;;;;;;13.62;62.75;101644.16;6497548;23;20011;-82
2022/06/04 03:21:41;;;;;;;;;;;;;;;13.79;61.38;101648.31;6499113;23;20030;-79
2022/06/04 03:24:14;;;;;;;5.55;3.33;;;;;;;13.75;62.86;101649.22;6500076;23;19954;-83
2022/06/04 03:26:45;;;;;;;6.80;3.53;;;;;;;13.69;63.13;101650.19;6502276;23;20010;-79
2022/06/04 03:29:16;;;;;;;5.37;3.40;;;;;;;13.66;62.90;101634.50;6502448;23;20043;-84
2022/06/04 03:31:48;;;;;;;7.13;3.50;;;;;;;13.55;63.44;101644.22;6502406;23;20075;-84
2022/06/04 03:34:19;;;;;;;8.43;3.10;;;;;;;13.52;63.98;101639.03;6502030;23;20026;-81
2022/06/04 03:36:51;;;;;;;7.87;4.13;;;;;;;13.56;64.60;101635.50;6507930;23;20059;-83
2022/06/04 03:39:22;;;;;;;5.83;3.40;;;;;;;13.46;64.33;101635.59;6503664;23;20015;-86
2022/06/04 03:41:54;;;;;;;5.67;3.63;;;;;;;13.42;64.52;101641.75;6502400;23;20039;-84
2022/06/04 03:44:25;;;;;;;6.83;3.60;;;;;;;13.33;65.09;101647.09;6503260;23;20321;-85
2022/06/04 03:46:57;;;;;;;7.03;3.53;;;;;;;13.47;65.00;101660.88;6501424;23;20251;-83
2022/06/04 03:49:28;;;;;;;6.63;3.80;;;;;;;13.31;65.55;101660.19;6501991;23;20075;-78
2022/06/04 03:52:01;;;;;;;7.47;4.80;;;;;;;13.28;65.77;101657.59;6501683;23;20008;-79
2022/06/04 03:57:42;;;;;;;6.93;4.05;;;;;;;13.31;65.82;101657.56;6502490;23;20032;-85
2022/06/04 04:00:23;;;;;;;7.63;4.25;;;;;;;13.37;66.09;101666.25;6500961;23;20722;-82
2022/06/04 04:03:04;;;;;;;9.00;3.67;;;;;;;13.27;66.39;101670.69;6501828;23;20229;-84
2022/06/04 04:05:38;;;;;;;9.70;4.70;;;;;;;13.25;66.25;101668.09;6502998;23;20000;-80
2022/06/04 04:08:10;;;;;;;7.50;4.20;;;;;;;13.33;66.62;101670.66;6502626;23;20004;-83
2022/06/04 04:10:43;;;;;;;9.53;4.43;;;;;;;13.32;66.86;101669.78;6503250;23;20008;-83
2022/06/04 04:13:16;;;;;;;9.48;4.32;;;;;;;13.18;66.79;101668.16;6503374;23;20311;-77
2022/06/04 04:15:47;;;;;;;8.73;4.45;;;;;;;13.17;67.35;101671.63;6503935;23;20023;-84
2022/06/04 04:18:19;;;;;;;7.33;3.97;;;;;;;13.24;67.41;101670.72;6501721;23;20016;-83
2022/06/04 04:20:50;;;;;;;6.17;3.93;;;;;;;13.43;67.48;101684.53;6501890;23;20134;-86
2022/06/04 04:23:21;;;;;;;10.53;4.90;;;;;;;13.43;67.65;101674.06;6502216;23;20035;-85
2022/06/04 04:25:53;;;;;;;6.30;4.57;;;;;;;13.42;68.68;101673.16;6503058;23;20319;-77
2022/06/04 04:28:24;;;;;;;5.87;4.27;;;;;;;13.34;67.45;101682.00;6501975;23;20004;-83
2022/06/04 04:30:56;;;;;;;8.57;4.50;;;;;;;13.35;67.53;101689.84;6502308;23;20012;-86
2022/06/04 04:33:28;;;;;;;8.52;4.88;;;;;;;13.17;67.92;101697.81;6503000;23;20004;-87
2022/06/04 04:36:00;;;;;;;8.90;4.40;;;;;;;13.34;68.25;101692.47;6501213;23;20008;-86
2022/06/04 04:38:31;;;;;;;11.63;4.60;;;;;;;13.17;68.12;101708.28;6501770;23;20079;-86
2022/06/04 04:41:11;;;;;;;8.27;4.90;;;;;;;13.37;68.01;101706.41;6500069;23;20004;-80
2022/06/04 04:43:42;;;;;;;7.30;4.63;;;;;;;13.47;68.64;101708.03;6499964;23;20088;-83
2022/06/04 04:46:14;;;;;;;8.50;4.37;;;;;;;13.49;67.95;101714.16;6500781;23;20066;-85
2022/06/04 04:48:50;;;;;;;9.43;4.33;;;;;;;13.49;68.31;101714.16;6500380;23;20342;-85
2022/06/04 04:51:25;;;;;;;7.20;4.78;;;;;;;13.70;67.89;101711.31;6500928;23;20390;-85
2022/06/04 04:53:56;;;;;;;7.10;4.55;;;;;;;13.48;68.04;101720.25;6500991;23;20342;-76
2022/06/04 04:56:28;;;;;;;8.00;4.35;;;;;;;13.68;69.02;101721.78;6503736;23;20004;-85
2022/06/04 04:59:00;;;;;;;8.30;4.90;;;;;;;13.64;68.94;101722.72;6501222;23;20139;-85
2022/06/04 05:01:31;;;;;;;9.67;5.17;;;;;;;13.59;68.66;101720.16;6500811;23;20006;-81
2022/06/04 05:04:03;;;;;;;16.80;6.20;;;;;;;13.56;68.16;101714.94;6500036;23;20008;-84
2022/06/04 05:06:35;;;;;;;8.98;4.82;;;;;;;13.71;69.10;101720.91;6499803;23;20480;-79
2022/06/04 05:09:06;;;;;;;11.20;4.87;;;;;;;13.67;68.16;101720.94;6499402;23;20020;-74
2022/06/04 05:11:38;;;;;;;7.40;4.90;;;;;;;13.53;68.76;101721.97;6498848;23;20031;-82
2022/06/04 05:14:09;;;;;;;8.20;5.20;;;;;;;13.49;69.21;101718.50;6497895;23;20091;-81
2022/06/04 05:16:41;;;;;;;7.67;4.73;;;;;;;13.61;68.68;101712.28;6500666;23;20015;-81
2022/06/04 05:19:13;;;;;;;8.10;5.03;;;;;;;13.70;69.27;101722.66;6497687;23;20071;-82
2022/06/04 05:21:48;;;;;;;9.90;5.88;;;;;;;13.73;68.92;101732.22;6499182;23;20311;-79
2022/06/04 05:24:21;;;;;;;8.05;4.90;;;;;;;13.77;69.10;101734.81;6498253;23;20003;-81
2022/06/04 05:26:54;;;;;;;8.65;5.07;;;;;;;13.84;69.64;101730.38;6498152;23;20080;-81
2022/06/04 05:29:28;;;;;;;7.80;5.28;;;;;;;13.80;68.31;101732.16;6498033;23;20473;-83
2022/06/04 05:31:59;;;;;;;12.75;5.13;;;;;;;13.99;70.18;101739.78;6500216;23;20004;-82
2022/06/04 05:34:32;;;;;;;10.00;5.35;;;;;;;13.93;68.55;101739.91;6499181;23;20004;-81
2022/06/04 05:37:04;;;;;;;9.75;5.53;;;;;;;14.06;68.61;101735.38;6499266;23;20105;-79
2022/06/04 05:39:36;;;;;;;;;;;;;;;14.43;67.25;101746.25;6496056;23;20711;-82
2022/06/04 05:42:07;;;;;;;12.05;5.82;;;;;;;14.17;67.88;101743.97;6500162;23;19959;-81
2022/06/04 05:44:39;;;;;;;10.13;5.20;;;;;;;14.22;67.64;101750.88;6499195;23;20004;-80
2022/06/04 05:47:10;;;;;;;13.03;5.60;;;;;;;14.21;67.71;101757.00;6495659;23;20012;-81
2022/06/04 05:49:42;;;;;;;11.70;6.20;;;;;;;14.17;68.17;101754.47;6496989;23;20011;-81
2022/06/04 05:52:13;;;;;;;8.27;5.20;;;;;;;14.12;68.28;101757.13;6497782;23;20340;-84
2022/06/04 05:54:44;;;;;;;10.70;6.33;;;;;;;14.21;68.08;101758.75;6496457;23;20024;-83
2022/06/04 05:57:16;;;;;;;9.47;5.63;;;;;;;14.37;68.93;101755.06;6497400;23;20004;-81
2022/06/04 05:59:48;;;;;;;7.60;5.83;;;;;;;14.43;68.27;101755.88;6497424;23;20007;-81
2022/06/04 06:02:20;;;;;;;;;;;;;;;14.74;66.91;101759.81;6496655;23;20337;-84
2022/06/04 06:04:51;;;;;;;12.47;7.00;;;;;;;14.56;66.88;101762.69;6497113;23;19908;-82
2022/06/04 06:07:22;;;;;;;10.10;5.90;;;;;;;14.78;66.76;101763.31;6498756;23;20715;-79
2022/06/04 06:09:53;;;;;;;10.50;5.73;;;;;;;14.64;66.30;101758.22;6499074;23;20024;-82
2022/06/04 06:12:25;;;;;;;12.03;6.43;;;;;;;14.71;67.36;101767.75;6504663;23;20051;-79
2022/06/04 06:14:56;;;;;;;11.13;6.03;;;;;;;15.02;67.39;101761.16;6502651;23;20020;-81
2022/06/04 06:17:28;;;;;;;8.10;6.10;;;;;;;15.02;65.81;101754.19;6491984;23;20475;-82
2022/06/04 06:19:59;;;;;;;9.57;5.93;;;;;;;15.23;66.33;101760.84;6496948;23;20011;-78
2022/06/04 06:22:31;;;;;;;9.93;5.80;;;;;;;15.30;65.51;101757.19;6498870;23;20079;-82
2022/06/04 06:25:05;;;;;;;10.52;5.93;;;;;;;15.31;65.86;101750.19;6496021;23;20058;-81
2022/06/04 06:27:37;;;;;;;12.55;6.57;;;;;;;15.40;64.75;101751.81;6496584;23;20103;-79
2022/06/04 06:30:08;;;;;;;10.17;5.93;;;;;;;15.36;64.36;101756.25;6494921;23;20014;-82
2022/06/04 06:32:40;;;;;;;9.82;6.13;;;;;;;15.42;64.04;101765.75;6470899;23;20004;-84
2022/06/04 06:35:12;;;;;;;7.20;6.03;;;;;;;15.44;64.24;101767.50;6497783;23;20586;-84
2022/06/04 06:37:44;;;;;;;9.05;6.30;;;;;;;15.31;65.89;101774.72;6498794;23;20443;-81
2022/06/04 06:40:15;;;;;;;12.97;6.67;;;;;;;15.23;64.53;101767.84;6496895;23;20000;-81
2022/06/04 06:42:47;;;;;;;7.63;6.37;;;;;;;15.61;64.77;101774.19;6498103;23;20039;-79
2022/06/04 06:45:18;;;;;;;9.37;6.57;;;;;;;15.60;64.27;101775.09;6499145;23;20004;-80
2022/06/04 06:47:50;;;;;;;9.87;7.00;;;;;;;15.74;63.71;101774.84;6497836;23;20015;-82
2022/06/04 06:50:21;;;;;;;14.43;6.97;;;;;;;15.79;63.51;101775.66;6497710;23;20054;-80
2022/06/04 06:52:52;;;;;;;9.43;6.60;;;;;;;15.59;64.17;101784.75;6497154;23;20012;-81
2022/06/04 06:55:25;;;;;;;14.17;6.73;;;;;;;15.50;63.64;101784.88;6497063;23;20006;-80
2022/06/04 06:57:57;;;;;;;10.38;6.88;;;;;;;15.51;64.29;101786.63;6497060;23;20018;-81
2022/06/04 07:00:28;;;;;;;11.10;6.97;;;;;;;15.50;64.72;101779.63;6496555;23;20012;-80
2022/06/04 07:02:59;;;;;;;9.73;6.27;;;;;;;15.51;64.24;101781.38;6497081;23;20437;-82
2022/06/04 07:05:31;;;;;;;11.60;6.73;;;;;;;15.61;63.72;101779.47;6497424;23;20000;-81
2022/06/04 07:08:03;;;;;;;12.90;7.57;;;;;;;15.45;64.37;101782.34;6497126;23;20434;-83
2022/06/04 07:10:34;;;;;;;9.70;6.43;;;;;;;15.61;64.92;101779.47;6496219;23;20015;-80
2022/06/04 07:13:05;;;;;;;9.87;6.33;;;;;;;15.49;64.49;101778.78;6496818;23;20039;-81
2022/06/04 07:15:37;;;;;;;13.97;7.20;;;;;;;15.82;65.53;101778.22;6496750;23;20016;-82
2022/06/04 07:18:12;;;;;;;12.17;7.13;;;;;;;15.63;64.48;101780.28;6497238;23;20008;-77
2022/06/04 07:20:43;;;;;;;11.40;8.05;;;;;;;15.43;63.76;101789.38;6497162;23;20018;-83
2022/06/04 07:23:16;;;;;;;10.13;7.07;;;;;;;15.48;64.97;101791.94;6496080;23;20075;-80
2022/06/04 07:25:48;;;;;;;15.30;7.15;;;;;;;15.46;64.67;101791.97;6497070;23;20004;-82
2022/06/04 07:28:19;;;;;;;10.17;7.10;;;;;;;15.68;67.39;101788.94;6499909;23;20008;-82
2022/06/04 07:30:50;;;;;;;11.00;8.13;;;;;;;15.69;66.22;101788.94;6495271;23;20012;-79
2022/06/04 07:33:22;;;;;;;10.90;6.93;;;;;;;15.65;63.92;101797.78;6497607;23;20011;-82
2022/06/04 07:35:54;;;;;;;9.97;7.53;;;;;;;15.58;64.48;101796.13;6497249;23;20084;-81
2022/06/04 07:38:26;;;;;;;10.32;7.30;;;;;;;15.79;64.16;101800.19;6497473;23;20004;-84
2022/06/04 07:40:58;;;;;;;13.43;7.28;;;;;;;15.86;64.32;101808.84;6498595;23;20115;-82
2022/06/04 07:43:29;;;;;;;8.97;7.87;;;;;;;15.93;63.66;101801.69;6497671;23;20004;-82
2022/06/04 07:46:01;;;;;;;15.00;7.90;;;;;;;15.96;63.79;101817.41;6498268;23;20012;-78
2022/06/04 07:48:32;;;;;;;12.88;7.85;;;;;;;15.96;63.75;101820.91;6498667;23;20008;-82
2022/06/04 07:51:04;;;;;;;10.50;7.30;;;;;;;15.97;63.13;101812.13;6497597;23;20509;-81
2022/06/04 07:53:36;;;;;;;11.77;7.53;;;;;;;15.96;62.65;101805.13;6497997;23;20023;-82
2022/06/04 07:56:11;;;;;;;9.97;7.40;;;;;;;16.17;63.01;101800.34;6498720;23;20012;-81
2022/06/04 07:58:42;;;;;;;9.05;6.88;;;;;;;16.36;62.77;101796.44;6497716;23;20004;-82
2022/06/04 08:01:17;;;;;;;16.97;6.77;;;;;;;16.32;62.15;101799.16;6497323;23;20011;-82
2022/06/04 08:03:50;;;;;;;12.60;7.47;;;;;;;16.31;62.45;101803.56;6470747;23;20015;-83
2022/06/04 08:06:22;;;;;;;15.60;7.55;;;;;;;16.39;62.67;101808.69;6496953;23;20087;-79
2022/06/04 08:08:58;;;;;;;11.13;7.90;;;;;;;16.32;62.55;101805.28;6497048;23;20000;-82
2022/06/04 08:11:33;;;;;;;10.13;7.20;;;;;;;16.31;61.76;101806.22;6498993;23;20672;-81
2022/06/04 08:14:07;;;;;;;12.05;7.10;;;;;;;16.29;62.08;101801.84;6499472;23;20000;-83
2022/06/04 08:16:41;;;;;;;12.05;8.20;;;;;;;16.18;62.16;101804.69;6500620;23;20202;-83
2022/06/04 08:19:13;;;;;;;10.73;7.82;;;;;;;15.99;62.42;101797.19;6500834;23;20079;-82
2022/06/04 08:21:45;;;;;;;12.18;7.55;;;;;;;16.25;62.94;101798.44;6499206;23;20086;-82
2022/06/04 08:24:18;;;;;;;14.63;7.68;;;;;;;16.31;64.51;101800.06;6501141;23;20063;-81
2022/06/04 08:26:56;;;;;;;13.65;8.30;;;;;;;16.35;63.27;101797.34;6501492;23;20008;-81
2022/06/04 08:29:31;;;;;;;9.82;7.45;;;;;;;16.51;62.65;101784.72;6499810;23;20190;-81
2022/06/04 08:32:04;;;;;;;10.38;8.20;;;;;;;16.45;62.97;101779.59;6495917;23;20083;-80
2022/06/04 08:34:36;;;;;;;15.73;8.02;;;;;;;16.35;61.61;101778.91;6498375;23;20014;-82
2022/06/04 08:37:07;;;;;;;13.60;8.60;;;;;;;16.61;62.80;101787.16;6496840;23;20016;-81
2022/06/04 08:39:38;;;;;;;11.60;7.90;;;;;;;16.85;62.36;101780.47;6497783;23;20015;-76
2022/06/04 08:42:10;;;;;;;11.77;7.33;;;;;;;16.93;61.23;101787.31;6498767;23;20004;-81
2022/06/04 08:44:53;;;;;;;13.37;7.93;;;;;;;16.83;61.50;101798.94;6472863;23;20361;-82
2022/06/04 08:47:31;;;;;;;13.07;7.80;;;;;;;16.95;62.78;101803.97;6497984;23;20377;-81
2022/06/04 08:50:08;;;;;;;11.75;8.48;;;;;;;17.16;60.14;101806.13;6498449;23;20008;-82
2022/06/04 08:52:46;;;;;;;14.30;8.20;;;;;;;17.35;59.90;101807.41;6499039;23;20004;-80
2022/06/04 08:58:36;;;;;;;13.70;8.35;;;;;;;18.03;59.19;101806.53;6498593;23;20446;-81
2022/06/04 09:01:35;;;;;;;12.23;7.60;;;;;;;18.54;57.13;101809.50;6497888;23;20020;-78
2022/06/04 09:04:10;;;;;;;12.77;7.95;;;;;;;18.87;57.96;101810.28;6494976;23;20094;-81
2022/06/04 09:07:19;;;;;;;12.10;7.80;;;;;;;19.36;56.23;101814.91;6498306;23;20004;-83
2022/06/04 09:10:18;;;;;;;11.00;7.80;;;;;;;19.64;54.09;101813.06;6497901;23;20405;-82
2022/06/04 09:12:54;;;;;;;10.55;7.65;;;;;;;19.86;52.53;101813.19;6498788;23;20418;-81
2022/06/04 09:15:38;;;;;;;12.70;7.55;;;;;;;20.47;51.65;101813.66;6498490;23;20079;-83
2022/06/04 09:18:15;;;;;;;15.10;7.00;;;;;;;20.75;52.24;101808.16;6498104;23;20011;-84
2022/06/04 09:20:51;;;;;;;12.63;7.07;;;;;;;20.83;51.06;101807.88;6497707;23;20016;-81
2022/06/04 09:23:35;;;;;;;12.48;6.93;;;;;;;21.26;50.88;101800.84;6497552;23;20004;-79
2022/06/04 09:26:15;;;;;;;11.82;7.90;;;;;;;20.95;47.79;101800.28;6497494;23;20016;-84
2022/06/04 09:28:49;;;;;;;12.75;7.75;;;;;;;21.09;49.34;101818.31;6497386;23;20004;-82
2022/06/04 09:31:58;;;;;;;9.63;7.65;;;;;;;21.41;48.36;101816.13;6498043;23;20066;-83
2022/06/04 09:34:54;;;;;;;10.73;7.45;;;;;;;20.89;48.65;101816.44;6498811;23;20011;-84
2022/06/04 09:37:25;;;;;;;11.10;7.78;;;;;;;21.17;49.78;101815.34;6497904;23;20081;-82
2022/06/04 09:40:06;;;;;;;15.93;8.03;;;;;;;21.31;49.33;101812.97;6499720;23;20015;-83
2022/06/04 09:42:38;;;;;;;12.18;7.82;;;;;;;21.36;48.28;101812.75;6498680;23;20070;-83
2022/06/04 09:45:18;;;;;;;13.43;8.15;;;;;;;21.76;48.07;101812.91;6500669;23;20004;-85
2022/06/04 09:47:55;;;;;;;14.50;7.85;;;;;;;21.65;46.85;101810.72;6501302;23;20004;-82
2022/06/04 09:50:37;;;;;;;10.02;7.82;;;;;;;22.34;47.69;101810.31;6475497;23;20012;-79
2022/06/04 09:53:09;;;;;;;11.43;7.53;;;;;;;21.95;45.45;101812.97;6521654;23;20004;-83
2022/06/04 09:55:48;;;;;;;11.07;7.78;;;;;;;21.60;47.08;101825.97;6510686;23;20456;-82
2022/06/04 09:58:26;;;;;;;11.13;7.10;;;;;;;21.39;48.02;101823.25;6499001;23;20027;-79
2022/06/04 10:01:08;;;;;;;11.52;7.82;;;;;;;21.52;48.26;101818.31;6498405;23;20008;-81
2022/06/04 10:03:40;;;;;;;12.80;7.85;;;;;;;21.55;46.94;101822.66;6498973;23;20039;-79
2022/06/04 10:06:15;;;;;;;10.77;8.43;;;;;;;21.20;48.05;101827.59;6498815;23;20097;-84
2022/06/04 10:11:56;;;;;;;12.73;8.80;;;;;;;21.52;47.39;101841.34;6497720;23;20015;-84
2022/06/04 10:14:38;;;;;;;12.65;8.35;;;;;;;22.04;47.49;101834.66;6498455;23;20330;-83
2022/06/04 10:17:19;;;;;;;13.75;7.97;;;;;;;22.85;45.49;101831.88;6498944;23;20031;-83
2022/06/04 10:19:52;;;;;;;12.75;7.70;;;;;;;23.23;46.89;101828.28;6498535;23;20008;-78
2022/06/04 10:22:23;;;;;;;10.20;8.20;;;;;;;23.34;45.04;101830.44;6499290;23;20008;-82
2022/06/04 10:24:57;;;;;;;11.93;9.07;;;;;;;22.65;44.41;101823.97;6500048;23;20016;-82
2022/06/04 10:27:58;;;;;;;10.43;8.70;;;;;;;22.71;45.68;101829.00;6499316;23;20054;-80
2022/06/04 10:31:07;;;;;;;12.60;8.38;;;;;;;22.40;45.97;101830.44;6501107;23;20011;-80
2022/06/04 10:33:55;;;;;;;9.63;8.23;;;;;;;22.47;49.05;101826.56;6500388;23;20409;-80
2022/06/04 10:36:53;;;;;;;10.75;8.13;;;;;;;23.59;44.77;101828.25;6499763;23;20031;-83
2022/06/04 10:39:33;;;;;;;10.77;7.90;;;;;;;23.95;43.89;101829.13;6499572;23;20030;-83
2022/06/04 10:42:40;;;;;;;9.02;7.85;;;;;;;24.82;41.77;101830.66;6500452;23;20015;-83
2022/06/04 10:45:20;;;;;;;11.68;7.93;;;;;;;26.83;38.03;101828.34;6498626;23;20008;-80
2022/06/04 10:48:01;;;;;;;11.65;8.93;;;;;;;27.42;36.19;101836.09;6501031;23;20015;-83
2022/06/04 10:53:58;;;;;;;10.70;8.50;;;;;;;27.37;35.79;101838.22;6500206;23;20020;-83
2022/06/04 10:56:40;;;;;;;11.45;7.88;;;;;;;27.56;34.89;101832.44;6497680;23;20062;-85
2022/06/04 10:59:19;;;;;;;;;;;;;;;29.72;34.43;101840.16;6499179;23;20012;-82
2022/06/04 11:01:56;;;;;;;12.25;7.65;;;;;;;30.02;33.15;101828.88;6497717;23;20351;-83
2022/06/04 11:04:52;;;;;;;14.75;9.02;;;;;;;29.70;31.31;101834.06;6499979;23;20012;-85
2022/06/04 11:07:36;;;;;;;12.43;8.73;;;;;;;28.33;33.07;101837.81;6499255;23;20008;-83
2022/06/04 11:10:14;;;;;;;9.77;7.45;;;;;;;28.37;33.56;101835.81;6499520;23;20016;-86
2022/06/04 11:13:11;;;;;;;8.68;7.78;;;;;;;27.92;33.47;101832.69;6499766;23;20329;-86
2022/06/04 11:15:59;;;;;;;10.55;7.95;;;;;;;27.10;35.28;101828.34;6500360;23;20004;-84
2022/06/04 11:18:46;;;;;;;11.48;8.38;;;;;;;27.68;35.16;101838.81;6502201;23;20079;-86
2022/06/04 11:21:27;;;;;;;11.02;8.77;;;;;;;26.64;35.86;101838.50;6502762;23;20381;-88
2022/06/04 11:24:04;;;;;;;11.65;8.30;;;;;;;27.22;38.07;101836.53;6502294;23;20386;-82
2022/06/04 11:26:45;;;;;;;14.27;9.05;;;;;;;27.35;39.62;101839.28;6503156;23;20067;-87
2022/06/04 11:29:18;;;;;;;9.02;8.15;;;;;;;28.61;34.19;101840.38;6502820;23;20405;-84
2022/06/04 11:32:02;;;;;;;10.43;8.43;;;;;;;29.73;32.74;101839.19;6504866;23;20077;-87
2022/06/04 11:34:33;;;;;;;11.70;9.15;;;;;;;29.33;31.74;101836.88;6514536;23;20004;-79
2022/06/04 11:37:17;;;;;;;;;;;;;;;31.16;29.86;101825.03;6514460;23;20060;-82
2022/06/04 11:40:05;;;;;;;10.55;8.07;;;;;;;30.61;31.39;101824.22;6518003;23;19891;-81
2022/06/04 11:43:05;;;;;;;14.82;8.20;;;;;;;31.76;30.63;101824.47;6514404;23;20011;-86
2022/06/04 11:46:01;;;;;;;12.52;9.05;;;;;;;32.23;28.67;101814.06;6519776;23;19988;-87
2022/06/04 11:48:38;;;;;;;9.18;8.18;;;;;;;32.46;27.38;101809.31;6517723;23;20095;-87
2022/06/04 11:51:28;;;;;;;10.82;8.02;;;;;;;33.36;27.14;101810.13;6481943;23;20346;-85
2022/06/04 11:54:14;;;;;;;8.32;7.35;;;;;;;33.78;28.98;101811.63;6504024;23;20457;-86
2022/06/04 11:57:07;;;;;;;10.10;8.88;;;;;;;34.29;26.19;101806.72;6501807;23;20557;-84
2022/06/04 11:59:47;;;;;;;10.18;6.68;;;;;;;34.06;25.70;101795.44;6501415;23;20008;-86
2022/06/04 12:02:46;;;;;;;8.00;6.82;;;;;;;35.96;26.12;101796.16;6501928;23;20062;-86
2022/06/04 12:05:35;;;;;;;7.63;6.78;;;;;;;35.11;23.56;101791.31;6503790;23;20012;-87
2022/06/04 12:08:11;;;;;;;12.85;7.47;;;;;;;34.81;24.87;101787.16;6501190;23;20004;-86
2022/06/04 12:11:19;;;;;;;9.38;7.18;;;;;;;35.69;26.61;101789.88;6501981;23;20015;-84
2022/06/04 12:14:28;;;;;;;11.15;8.25;;;;;;;35.61;24.10;101776.28;6499806;23;20015;-82
2022/06/04 12:17:18;;;;;;;12.48;7.82;;;;;;;35.32;25.11;101771.19;6501076;23;20008;-84
2022/06/04 12:26:01;;;;;;;10.57;7.50;;;;;;;36.34;23.35;101766.81;6502595;23;20020;-85
2022/06/04 12:28:42;;;;;;;;;;;;;;;39.12;20.17;101768.03;6502196;23;20060;-85
2022/06/04 12:31:27;;;;;;;12.93;7.78;;;;;;;35.87;22.68;101761.84;6499707;23;19912;-88
2022/06/04 12:33:58;;;;;;;10.95;7.65;;;;;;;34.83;25.24;101756.22;6500542;23;20066;-87
2022/06/04 12:36:34;;;;;;;10.32;7.82;;;;;;;34.28;24.15;101761.75;6500394;23;20004;-85